Aviation Digital Data Service (ADDS)

Output produced by METARs form (1336 UTC 08 May 2021)
found at http://aviationweather.gov/metar/data/
 
KASD 081120Z 0812/0912 00000KT P6SM FEW250 
     FM081800 16010G18KT P6SM SKC 
     FM091000 18005KT P6SM SCT003